Flight Track Log - Related Links

Times and Time Zones

All times are in EDT time to prevent confusion due to time zone crossing. See the EJA929 flight status page for this flight to view local times or setup timezone preferences in your user account.

Time Position Orientation Groundspeed Altitude Reporting Facility
EDT Latitude Longitude Course Direction KTS MPH feet Rate Location/Type
Wed 09:53:06 AM 40.9000 -74.0333 270° West 194 223 2,700  Level New York TRACON
Wed 09:54:06 AM 40.9167 -74.1000 288° West 185 213 4,700 2,737 Climbing New York TRACON
Wed 09:55:00 AM 40.9167 -74.1667 270° West 216 249 7,900 1,737 Climbing New York TRACON
Wed 09:56:00 AM 40.9000 -74.2667 258° West 249 287 8,000 1,050 Climbing New York TRACON
Wed 09:57:00 AM 40.9167 -74.3500 285° West 254 292 10,000 1,306 Climbing New York TRACON
Wed 09:58:00 AM 40.5833 -74.9154 270° West  Level FlightAware Approximate
Wed 09:58:04 AM 40.9542 -74.4528 296° West 302 348 10,700  Level New York Center
Wed 09:59:06 AM 40.9178 -74.5522 244° Southwest 299 344 12,000 1,033 Climbing New York Center
Wed 10:00:06 AM 40.8433 -74.6606 228° Southwest 343 395 12,800 1,017 Climbing New York Center
Wed 10:01:04 AM 40.7758 -74.7472 224° Southwest 372 428 14,000 1,109 Climbing New York Center
Wed 10:02:05 AM 40.6931 -74.8547 225° Southwest 380 437 15,000 1,180 Climbing New York Center
Wed 10:03:06 AM 40.6208 -74.9514 225° Southwest 380 437 16,400 1,361 Climbing New York Center
Wed 10:04:04 AM 40.5464 -75.0533 226° Southwest 380 437 17,700 1,311 Climbing New York Center
Wed 10:05:05 AM 40.4847 -75.1453 229° Southwest 387 445 19,000 1,350 Climbing New York Center
Wed 10:06:04 AM 40.4181 -75.2528 231° Southwest 387 445 20,400 1,412 Climbing New York Center
Wed 10:07:04 AM 40.3492 -75.3653 231° Southwest 393 452 21,800 1,400 Climbing New York Center
Wed 10:08:04 AM 40.2781 -75.4775 230° Southwest 399 459 23,200 1,400 Climbing New York Center
Wed 10:09:04 AM 40.2067 -75.5950 232° Southwest 410 472 24,600 1,339 Climbing New York Center
Wed 10:10:05 AM 40.1450 -75.7239 238° Southwest 421 484 25,900 1,328 Climbing New York Center
Wed 10:11:06 AM 40.0767 -75.8572 236° Southwest 431 496 27,300 1,385 Climbing New York Center
Wed 10:13:07 AM 39.8897 -76.0889 224° Southwest 434 499 30,100 1,392 Climbing Washington Center
Wed 10:14:07 AM 39.7933 -76.1992 221° Southwest 459 528 31,500 1,400 Climbing Washington Center
Wed 10:15:07 AM 39.6989 -76.3142 223° Southwest 471 542 32,900 1,550 Climbing Washington Center
Wed 10:16:07 AM 39.5814 -76.4422 220° Southwest 509 586 34,600 1,550 Climbing Washington Center
Wed 10:17:07 AM 39.4786 -76.5567 221° Southwest 492 566 36,000 1,400 Climbing Washington Center
Wed 10:18:07 AM 39.3797 -76.6683 221° Southwest 459 528 37,400 1,000 Climbing Washington Center
Wed 10:19:07 AM 39.2786 -76.7819 221° Southwest 485 558 38,000 300 Climbing Washington Center
Wed 10:20:07 AM 39.1836 -76.8850 220° Southwest 485 558 38,000  Level Washington Center
Wed 10:21:07 AM 39.0697 -77.0139 221° Southwest 485 558 38,000  Level Washington Center
Wed 10:22:07 AM 38.9642 -77.1214 218° Southwest 492 566 38,000  Level Washington Center
Wed 10:23:07 AM 38.8583 -77.2364 220° Southwest 497 572 38,000  Level Washington Center
Wed 10:24:07 AM 38.7567 -77.3539 222° Southwest 497 572 38,000  Level Washington Center
Wed 10:25:07 AM 38.6506 -77.4683 220° Southwest 491 565 38,000  Level Washington Center
Wed 10:26:07 AM 38.5467 -77.5800 220° Southwest 491 565 38,000  Level Washington Center
Wed 10:27:07 AM 38.4428 -77.6911 220° Southwest 491 565 38,000  Level Washington Center
Wed 10:28:07 AM 38.3319 -77.8178 222° Southwest 503 579 38,000  Level Washington Center
Wed 10:29:07 AM 38.2319 -77.9206 219° Southwest 497 572 38,000  Level Washington Center
Wed 10:30:07 AM 38.1297 -78.0308 220° Southwest 492 566 38,000  Level Washington Center
Wed 10:31:07 AM 38.0208 -78.1458 220° Southwest 492 566 38,000  Level Washington Center
Wed 10:32:07 AM 37.9164 -78.2531 219° Southwest 497 572 38,000 -101 Level Washington Center
Wed 10:33:06 AM 37.8036 -78.3594 217° Southwest 502 578 37,800 -454 Descending Washington Center
Wed 10:34:06 AM 37.6947 -78.4631 217° Southwest 507 583 37,100 -893 Descending Washington Center
Wed 10:35:07 AM 37.5967 -78.5511 215° Southwest 496 571 36,000 -843 Descending Washington Center
Wed 10:36:07 AM 37.4856 -78.6567 217° Southwest 496 571 35,400 -800 Descending Washington Center
Wed 10:37:07 AM 37.3700 -78.7617 216° Southwest 506 582 34,400 -1,050 Descending Washington Center
Wed 10:38:07 AM 37.2481 -78.8767 217° Southwest 506 582 33,300 -1,150 Descending Washington Center
Wed 10:39:07 AM 37.1367 -78.9814 217° Southwest 506 582 32,100 -1,200 Descending Washington Center
Wed 10:40:07 AM 37.0231 -79.0856 216° Southwest 506 582 30,900 -1,050 Descending Washington Center
Wed 10:41:07 AM 36.9094 -79.1922 217° Southwest 513 590 30,000 -450 Descending Washington Center
Wed 10:42:07 AM 36.7956 -79.2958 216° Southwest 508 585 30,000  Level Washington Center
Wed 10:43:07 AM 36.6947 -79.3894 217° Southwest 514 592 30,000  Level Washington Center
Wed 10:44:07 AM 36.5808 -79.4925 216° Southwest 514 592 30,000  Level Washington Center
Wed 10:46:03 AM 36.3586 -79.6894 216° Southwest 490 564 30,000  Level Atlanta Center
Wed 10:47:03 AM 36.2436 -79.7936 216° Southwest 501 577 30,000  Level Atlanta Center
Wed 10:48:03 AM 36.1303 -79.8947 216° Southwest 513 590 30,000  Level Atlanta Center
Wed 10:49:03 AM 36.0125 -79.9906 213° Southwest 513 590 30,000  Level Atlanta Center
Wed 10:50:03 AM 35.8667 -80.0619 202° Southwest 507 583 30,000  Level Atlanta Center
Wed 10:51:03 AM 35.7353 -80.1269 202° Southwest 512 589 30,000  Level Atlanta Center
Wed 10:52:03 AM 35.6019 -80.1972 203° Southwest 512 589 30,000  Level Atlanta Center
Wed 10:53:03 AM 35.4950 -80.2533 203° Southwest 491 565 30,000 -1,650 Level Atlanta Center
Wed 10:54:03 AM 35.3883 -80.3067 202° Southwest 443 510 26,700 -3,050 Descending Atlanta Center
Wed 10:55:03 AM 35.2833 -80.3597 202° Southwest 415 478 23,900 -2,850 Descending Atlanta Center
Wed 10:56:03 AM 35.1806 -80.4075 201° Southwest 401 461 21,000 -1,293 Descending Atlanta Center
Wed 10:58:04 AM 34.9883 -80.5058 203° Southwest 374 430 20,000 -331 Descending Jacksonville Center
Wed 10:59:04 AM 34.8831 -80.5592 203° Southwest 374 430 20,000  Level Jacksonville Center
Wed 11:00:04 AM 34.7900 -80.6075 203° Southwest 374 430 20,000  Level Jacksonville Center
Wed 11:01:04 AM 34.6908 -80.6556 202° Southwest 379 436 20,000  Level Jacksonville Center
Wed 11:02:04 AM 34.5894 -80.7036 201° Southwest 385 443 20,000  Level Jacksonville Center
Wed 11:03:04 AM 34.4900 -80.7489 201° Southwest 394 453 20,000  Level Jacksonville Center
Wed 11:04:04 AM 34.3908 -80.8017 204° Southwest 393 452 20,000  Level Jacksonville Center
Wed 11:05:04 AM 34.2936 -80.8492 202° Southwest 378 435 20,000  Level Jacksonville Center
Wed 11:06:04 AM 34.2025 -80.9014 205° Southwest 378 435 20,000  Level Jacksonville Center
Wed 11:07:04 AM 34.1206 -80.9886 221° Southwest 378 435 20,000  Level Jacksonville Center
Wed 11:08:04 AM 34.0506 -81.0603 220° Southwest 378 435 20,000 -600 Level Jacksonville Center
Wed 11:09:04 AM 33.9683 -81.1422 220° Southwest 383 441 18,800 -1,700 Descending Jacksonville Center
Wed 11:10:04 AM 33.8900 -81.2239 221° Southwest 383 441 16,600 -2,100 Descending Jacksonville Center
Wed 11:11:04 AM 33.8139 -81.3003 220° Southwest 370 426 14,600 -2,000 Descending Jacksonville Center
Wed 11:13:00 AM 33.6414 -81.4585 220° Southwest  Level FlightAware Approximate
Wed 11:20:00 AM 33.3667 -81.9500 239° Southwest  Level FlightAware Approximate
Wed 11:21:00 AM 33.3699 -81.9645 239° Southwest  Level Estimated
Wed 11:22:00 AM 33.3699 -81.9645 239° Southwest  Level Estimated
Wed 11:23:00 AM 33.3699 -81.9645 239° Southwest  Level Estimated
Wed 11:24:00 AM 33.3699 -81.9645 239° Southwest  Level Estimated
Wed 11:25:00 AM 33.3699 -81.9645 239° Southwest  Level Estimated
Wed 11:26:00 AM 33.3699 -81.9645 239° Southwest  Level Estimated
Wed 11:27:00 AM 33.3699 -81.9645 239° Southwest  Level Estimated

Login

Don't have an account? Register now (free) for customized features, flight alerts, and more!